Time;durP1;ratioP1;P1;durP2;ratioP2;P2;SDS_P1;SDS_P2;PMS_P1;PMS_P2;Temp;Humidity;BMP_temperature;BMP_pressure;BME280_temperature;BME280_humidity;BME280_pressure;Samples;Min_cycle;Max_cycle;Signal;HPM_P1;HPM_P2
2022/05/22 00:03:19;;;;;;;10.80;5.97;;;;;;;17.87;68.39;97328.59;10333318;28;20460;-58
2022/05/22 00:08:19;;;;;;;9.85;5.82;;;;;;;17.80;68.91;97329.72;10333881;28;20503;-57
2022/05/22 00:13:18;;;;;;;8.40;5.45;;;;;;;17.75;69.09;97332.50;10331158;28;20506;-57
2022/05/22 00:18:17;;;;;;;8.57;5.32;;;;;;;17.61;69.94;97329.47;10332932;28;20475;-57
2022/05/22 00:23:16;;;;;;;9.20;5.95;;;;;;;17.48;70.05;97321.22;10333079;28;20528;-58
2022/05/22 00:28:15;;;;;;;9.63;5.80;;;;;;;17.49;70.56;97325.53;10332875;28;20556;-58
2022/05/22 00:33:14;;;;;;;;;;;;;;;17.51;70.67;97317.63;10332759;28;20108;-58
2022/05/22 00:38:13;;;;;;;7.80;5.23;;;;;;;17.49;71.00;97328.16;10373501;28;20017;-57
2022/05/22 00:43:33;;;;;;;8.85;5.53;;;;;;;17.54;70.95;97330.63;10360592;28;20029;-58
2022/05/22 00:48:33;;;;;;;8.32;5.97;;;;;;;17.52;71.38;97330.69;10332665;28;20081;-58
2022/05/22 00:53:36;;;;;;;9.27;6.50;;;;;;;17.55;71.32;97321.84;10332378;28;20077;-58
2022/05/22 00:58:35;;;;;;;10.50;5.93;;;;;;;17.56;71.50;97318.31;10332643;28;20084;-57
2022/05/22 01:03:36;;;;;;;8.93;6.07;;;;;;;17.59;71.89;97317.34;10331452;28;20057;-57
2022/05/22 01:08:40;;;;;;;9.88;6.05;;;;;;;17.55;72.11;97324.47;10332174;28;20504;-57
2022/05/22 01:13:43;;;;;;;8.68;5.70;;;;;;;17.54;72.58;97317.50;10330207;28;20103;-57
2022/05/22 01:18:49;;;;;;;11.63;6.88;;;;;;;17.59;72.43;97312.97;10331773;28;20065;-57
2022/05/22 01:23:50;;;;;;;9.55;6.22;;;;;;;17.55;73.20;97308.72;10330213;28;20073;-58
2022/05/22 01:28:49;;;;;;;8.93;6.05;;;;;;;17.58;73.05;97316.47;10332234;28;20073;-58
2022/05/22 01:33:48;;;;;;;8.85;5.97;;;;;;;17.63;73.06;97311.91;10330439;28;20057;-58
2022/05/22 01:38:47;;;;;;;8.27;6.07;;;;;;;17.69;73.07;97316.97;10349092;28;20065;-58
2022/05/22 01:43:46;;;;;;;14.52;6.68;;;;;;;17.61;73.71;97320.75;10337882;28;20065;-58
2022/05/22 01:48:45;;;;;;;8.98;5.88;;;;;;;17.72;73.16;97316.84;10339600;28;20088;-57
2022/05/22 01:53:44;;;;;;;8.68;6.47;;;;;;;17.42;73.30;97279.44;10338709;28;20044;-58
2022/05/22 01:58:43;;;;;;;;;;;;;;;17.57;74.05;97325.28;10338575;28;20124;-57
2022/05/22 02:03:43;;;;;;;;;;;;;;;17.63;73.75;97326.81;10338721;28;19921;-58
2022/05/22 02:08:42;;;;;;;9.27;6.07;;;;;;;17.62;73.67;97325.97;10338428;28;19943;-57
2022/05/22 02:13:45;;;;;;;;;;;;;;;17.65;73.44;97320.59;10336922;28;20112;-58
2022/05/22 02:18:44;;;;;;;8.32;6.28;;;;;;;17.66;73.16;97324.94;10337199;28;20379;-58
2022/05/22 02:23:43;;;;;;;9.32;6.50;;;;;;;17.55;73.56;97324.47;10336990;28;20620;-58
2022/05/22 02:28:42;;;;;;;9.70;6.10;;;;;;;17.54;73.25;97320.13;10339142;28;20076;-58
2022/05/22 02:33:41;;;;;;;13.60;7.15;;;;;;;17.48;73.59;97331.69;10344227;28;20422;-57
2022/05/22 02:38:41;;;;;;;;;;;;;;;17.40;73.53;97322.38;10381926;28;20037;-58
2022/05/22 02:43:40;;;;;;;12.05;6.32;;;;;;;17.40;73.50;97325.84;10359624;28;19990;-58
2022/05/22 02:48:38;;;;;;;;;;;;;;;17.43;73.47;97328.38;10338478;28;20104;-57
2022/05/22 02:53:37;;;;;;;12.20;7.27;;;;;;;17.38;73.78;97325.09;10337380;28;20003;-58
2022/05/22 02:58:37;;;;;;;8.80;5.90;;;;;;;17.22;73.22;97316.03;10338971;28;20061;-58
2022/05/22 03:03:36;;;;;;;11.07;5.90;;;;;;;17.43;72.82;97338.03;10337502;28;20543;-58
2022/05/22 03:08:35;;;;;;;9.20;5.63;;;;;;;17.42;72.51;97329.28;10338032;28;20528;-58
2022/05/22 03:13:34;;;;;;;12.13;6.38;;;;;;;17.37;72.19;97304.13;10335385;28;20037;-58
2022/05/22 03:18:33;;;;;;;10.60;6.18;;;;;;;17.48;71.75;97343.97;10338772;28;20052;-57
2022/05/22 03:23:32;;;;;;;10.43;5.72;;;;;;;17.62;71.24;97339.09;10337477;28;20065;-58
2022/05/22 03:28:31;;;;;;;8.48;5.78;;;;;;;17.72;70.99;97335.19;10337057;28;20025;-57
2022/05/22 03:33:30;;;;;;;;;;;;;;;17.75;69.99;97340.38;10335370;28;20047;-58
2022/05/22 03:38:29;;;;;;;10.63;5.57;;;;;;;17.88;69.55;97350.44;10335157;28;20315;-57
2022/05/22 03:43:28;;;;;;;9.80;5.82;;;;;;;17.90;69.16;97356.50;10329773;28;20117;-58
2022/05/22 03:48:27;;;;;;;12.48;5.97;;;;;;;17.97;68.52;97352.72;10331376;28;20044;-58
2022/05/22 03:53:26;;;;;;;15.10;7.40;;;;;;;17.95;66.82;97349.28;10333921;28;20084;-58
2022/05/22 03:58:25;;;;;;;17.00;8.27;;;;;;;18.15;65.25;97359.91;10333367;28;20071;-57
2022/05/22 04:03:24;;;;;;;13.95;6.50;;;;;;;18.08;63.42;97345.31;10333417;28;20025;-57
2022/05/22 04:08:23;;;;;;;11.20;6.03;;;;;;;18.39;63.74;97367.78;10332564;28;20538;-58
2022/05/22 04:13:24;;;;;;;10.85;5.03;;;;;;;18.46;62.35;97369.25;10331822;28;20120;-58
2022/05/22 04:18:23;;;;;;;9.82;5.78;;;;;;;18.63;62.27;97367.72;10333780;28;20081;-58
2022/05/22 04:28:40;;;;;;;8.73;5.03;;;;;;;18.74;60.70;97373.44;10332276;28;20057;-58
2022/05/22 04:33:39;;;;;;;10.18;5.05;;;;;;;18.89;61.53;97367.56;10332877;28;20077;-58
2022/05/22 04:38:38;;;;;;;11.00;5.40;;;;;;;19.00;61.11;97370.63;10332085;28;20072;-58
2022/05/22 04:43:37;;;;;;;8.77;5.00;;;;;;;19.22;60.79;97380.25;10331870;28;20024;-58
2022/05/22 04:48:36;;;;;;;6.90;5.20;;;;;;;19.32;59.92;97373.69;10332327;28;20065;-58
2022/05/22 04:53:35;;;;;;;9.07;5.38;;;;;;;19.49;59.06;97380.84;10331518;28;20021;-58
2022/05/22 04:58:34;;;;;;;8.02;4.50;;;;;;;19.65;58.39;97383.72;10331645;28;20064;-58
2022/05/22 05:03:34;;;;;;;8.80;4.10;;;;;;;19.71;55.73;97385.22;10332081;28;20025;-58
2022/05/22 05:08:33;;;;;;;10.57;5.22;;;;;;;19.63;55.78;97381.16;10330370;28;20069;-57
2022/05/22 05:13:32;;;;;;;10.50;4.75;;;;;;;19.57;56.78;97401.59;10333871;28;20064;-57
2022/05/22 05:18:31;;;;;;;6.32;3.83;;;;;;;19.54;57.48;97399.09;10340629;28;20118;-58
2022/05/22 05:23:30;;;;;;;6.47;3.80;;;;;;;19.50;58.04;97376.44;10340107;28;20053;-58
2022/05/22 05:28:29;;;;;;;5.97;3.88;;;;;;;19.79;57.42;97402.41;10340179;28;20072;-58
2022/05/22 05:33:31;;;;;;;6.25;3.60;;;;;;;19.92;56.23;97388.69;10342467;28;20081;-58
2022/05/22 05:38:32;;;;;;;5.15;3.58;;;;;;;20.35;56.99;97402.53;10341471;28;20522;-58
2022/05/22 05:43:31;;;;;;;6.35;4.10;;;;;;;20.59;56.79;97396.19;10342777;28;20512;-58
2022/05/22 05:48:30;;;;;;;7.07;4.40;;;;;;;20.73;57.32;97403.44;10342753;28;20472;-58
2022/05/22 05:53:29;;;;;;;9.57;4.32;;;;;;;20.86;56.06;97398.41;10342051;28;20021;-58
2022/05/22 05:58:28;;;;;;;7.30;4.13;;;;;;;20.92;55.71;97391.06;10341710;28;20599;-58
2022/05/22 06:03:27;;;;;;;6.22;4.18;;;;;;;21.18;55.16;97404.75;10342205;28;20021;-57
2022/05/22 06:08:26;;;;;;;7.00;3.90;;;;;;;21.16;51.89;97397.84;10339130;28;20057;-58
2022/05/22 06:13:25;;;;;;;7.45;4.40;;;;;;;21.10;51.40;97402.50;10341351;28;20065;-58
2022/05/22 06:18:25;;;;;;;7.47;4.30;;;;;;;21.18;51.16;97396.84;10341858;28;20084;-58
2022/05/22 06:23:24;;;;;;;7.47;4.57;;;;;;;21.28;50.71;97411.31;10340417;28;20065;-58
2022/05/22 06:28:23;;;;;;;9.50;5.30;;;;;;;21.36;49.99;97403.03;10337948;28;20477;-58
2022/05/22 06:33:21;;;;;;;9.18;4.22;;;;;;;21.42;50.98;97412.41;10337917;28;20049;-58
2022/05/22 06:43:38;;;;;;;37.50;14.20;;;;;;;21.30;48.11;97388.34;10377784;28;20056;-58
2022/05/22 06:48:37;;;;;;;29.77;12.13;;;;;;;21.36;48.38;97384.56;10377464;28;20033;-58
2022/05/22 06:53:36;;;;;;;25.52;10.38;;;;;;;21.42;47.26;97373.66;10377395;28;20182;-58
2022/05/22 06:58:36;;;;;;;36.28;16.95;;;;;;;21.49;47.32;97377.72;10334441;28;20687;-58
2022/05/22 07:03:35;;;;;;;25.88;12.20;;;;;;;21.51;48.16;97383.78;10336894;28;20088;-59
2022/05/22 07:08:34;;;;;;;16.15;7.55;;;;;;;21.50;47.80;97390.00;10335737;28;20504;-58
2022/05/22 07:13:33;;;;;;;22.80;8.73;;;;;;;21.37;46.88;97386.25;10336525;28;20065;-58
2022/05/22 07:18:32;;;;;;;17.88;8.18;;;;;;;21.32;46.03;97383.00;10335736;28;20043;-58
2022/05/22 07:23:31;;;;;;;17.98;8.35;;;;;;;21.51;46.96;97396.97;10335752;28;20061;-58
2022/05/22 07:28:31;;;;;;;13.02;5.50;;;;;;;21.58;44.58;97397.50;10333235;28;20065;-58
2022/05/22 07:33:30;;;;;;;12.95;6.40;;;;;;;21.76;44.43;97382.53;10337065;28;20084;-58
2022/05/22 07:38:29;;;;;;;8.35;4.57;;;;;;;21.95;45.10;97387.69;10375800;28;20037;-58
2022/05/22 07:43:28;;;;;;;5.53;3.20;;;;;;;21.94;44.10;97392.13;10374743;28;20064;-58
2022/05/22 07:48:26;;;;;;;5.93;3.05;;;;;;;21.81;42.77;97391.06;10375346;28;20032;-58
2022/05/22 07:53:27;;;;;;;6.45;3.30;;;;;;;21.69;43.14;97389.06;10375340;28;20029;-58
2022/05/22 07:58:27;;;;;;;8.38;3.50;;;;;;;21.95;43.24;97377.97;10372578;28;20075;-58
2022/05/22 08:03:26;;;;;;;7.30;3.40;;;;;;;22.38;44.65;97367.75;10333670;28;20053;-58
2022/05/22 08:08:25;;;;;;;10.48;3.50;;;;;;;22.76;45.11;97340.13;10333901;28;20073;-58
2022/05/22 08:13:24;;;;;;;10.35;4.53;;;;;;;23.04;45.17;97343.84;10333346;28;20041;-58
2022/05/22 08:18:23;;;;;;;8.88;4.18;;;;;;;23.09;45.61;97326.78;10333142;28;20091;-58
2022/05/22 08:23:23;;;;;;;11.98;6.25;;;;;;;23.41;47.57;97330.13;10333270;28;20751;-59
2022/05/22 08:28:22;;;;;;;13.57;7.00;;;;;;;23.54;45.74;97322.34;10333431;28;20429;-58
2022/05/22 08:33:21;;;;;;;11.38;5.70;;;;;;;23.60;46.50;97298.13;10335060;28;20046;-58
2022/05/22 08:38:20;;;;;;;10.27;4.80;;;;;;;24.20;44.48;97336.03;10376965;28;20040;-59
2022/05/22 08:43:41;;;;;;;9.63;4.82;;;;;;;24.63;43.94;97323.50;10359230;28;20057;-58
2022/05/22 08:48:56;;;;;;;8.15;5.40;;;;;;;24.98;39.20;97320.38;10335449;28;20084;-58
2022/05/22 08:54:05;;;;;;;10.00;5.10;;;;;;;25.44;39.35;97319.94;10335639;28;20065;-58
2022/05/22 08:59:19;;;;;;;9.02;4.35;;;;;;;25.44;38.62;97301.34;10335469;28;20433;-58
2022/05/22 09:04:35;;;;;;;4.45;2.90;;;;;;;25.58;33.64;97305.75;10334976;28;20037;-58
2022/05/22 09:09:38;;;;;;;7.00;2.90;;;;;;;25.12;33.57;97292.91;10334111;28;20091;-58
2022/05/22 09:14:42;;;;;;;4.07;2.33;;;;;;;25.26;33.20;97292.81;10334840;28;20080;-58
2022/05/22 09:19:49;;;;;;;3.95;2.40;;;;;;;25.32;33.14;97270.31;10334292;28;20073;-58
2022/05/22 09:25:07;;;;;;;4.63;2.15;;;;;;;25.40;30.67;97285.72;10336409;28;20053;-58
2022/05/22 09:30:18;;;;;;;2.33;1.90;;;;;;;25.46;30.87;97269.38;10331673;28;20080;-58
2022/05/22 09:35:29;;;;;;;2.38;1.92;;;;;;;25.37;31.60;97259.38;10332101;28;20535;-58
2022/05/22 09:40:30;;;;;;;4.60;1.90;;;;;;;25.10;30.99;97261.13;10360381;28;20061;-58
2022/05/22 09:46:07;;;;;;;4.03;2.55;;;;;;;25.03;31.00;97251.06;10330639;28;20436;-58
2022/05/22 09:51:24;;;;;;;2.00;1.80;;;;;;;25.14;31.38;97237.06;10331086;28;20057;-58
2022/05/22 09:56:37;;;;;;;5.32;2.10;;;;;;;24.81;30.29;97235.69;10330716;28;20120;-58
2022/05/22 10:01:40;;;;;;;4.03;1.98;;;;;;;24.68;30.73;97235.66;10334204;28;20528;-58
2022/05/22 10:06:57;;;;;;;4.35;2.00;;;;;;;24.60;30.68;97230.88;10337928;28;20076;-58
2022/05/22 10:12:17;;;;;;;1.95;1.77;;;;;;;24.75;30.56;97218.38;10336628;28;20081;-58
2022/05/22 10:17:28;;;;;;;2.45;2.00;;;;;;;25.12;30.48;97215.91;10338075;28;20073;-58
2022/05/22 10:22:48;;;;;;;3.25;2.00;;;;;;;25.47;29.99;97202.84;10338003;28;20072;-58
2022/05/22 10:27:47;;;;;;;4.22;1.95;;;;;;;25.97;31.23;97199.38;10336804;28;20523;-58
2022/05/22 10:32:49;;;;;;;3.45;1.90;;;;;;;26.33;30.42;97193.22;10336487;28;20647;-58
2022/05/22 10:38:07;;;;;;;2.83;1.80;;;;;;;26.67;31.69;97188.03;10375039;28;20068;-58
2022/05/22 10:43:07;;;;;;;3.58;2.15;;;;;;;26.98;32.67;97187.44;10378360;28;20067;-58
2022/05/22 10:48:34;;;;;;;3.70;2.20;;;;;;;27.29;29.31;97168.22;10377603;28;20512;-59
2022/05/22 10:53:49;;;;;;;3.92;2.10;;;;;;;27.48;28.49;97167.66;10377592;28;20080;-59
2022/05/22 10:58:57;;;;;;;2.50;1.60;;;;;;;27.41;27.71;97173.44;10377717;28;20060;-59
2022/05/22 11:04:06;;;;;;;3.15;1.80;;;;;;;26.56;28.42;97172.88;10335660;28;20088;-58
2022/05/22 11:09:07;;;;;;;4.13;2.13;;;;;;;25.92;30.25;97167.81;10335223;28;20081;-59
2022/05/22 11:14:06;;;;;;;2.75;1.83;;;;;;;25.42;30.59;97164.28;10335054;28;20079;-58
2022/05/22 11:19:21;;;;;;;2.70;1.98;;;;;;;25.03;31.63;97166.09;10335523;28;20037;-59
2022/05/22 11:24:27;;;;;;;3.08;2.38;;;;;;;24.60;33.25;97155.75;10335708;28;20049;-58
2022/05/22 11:29:50;;;;;;;3.20;1.90;;;;;;;24.26;33.37;97155.31;10335135;28;20087;-58
2022/05/22 11:35:20;;;;;;;4.80;2.40;;;;;;;24.51;33.61;97157.19;10335471;28;20528;-58
2022/05/22 11:40:25;;;;;;;2.45;2.05;;;;;;;24.40;33.80;97152.63;10333069;28;20061;-58
2022/05/22 11:45:36;;;;;;;4.35;2.78;;;;;;;24.53;34.22;97146.50;10334896;28;20536;-59
2022/05/22 11:50:47;;;;;;;2.78;2.38;;;;;;;24.88;33.18;97155.59;10335407;28;20073;-59
2022/05/22 11:56:13;;;;;;;3.05;1.92;;;;;;;24.86;31.18;97151.31;10334402;28;20057;-59
2022/05/22 12:01:24;;;;;;;3.47;1.88;;;;;;;24.92;30.98;97147.41;10333823;28;20057;-59
2022/05/22 12:06:45;;;;;;;2.63;2.20;;;;;;;25.20;30.24;97125.09;10333281;28;20049;-59
2022/05/22 12:12:13;;;;;;;3.13;1.90;;;;;;;25.27;30.85;97121.91;10333952;28;20072;-59
2022/05/22 12:17:35;;;;;;;4.50;2.17;;;;;;;25.20;31.62;97109.16;10333836;28;20065;-59
2022/05/22 12:23:13;;;;;;;3.53;2.00;;;;;;;24.81;32.20;97119.78;10333053;28;20407;-59
2022/05/22 12:28:47;;;;;;;3.22;2.08;;;;;;;24.23;32.46;97054.78;10331083;28;20076;-59
2022/05/22 12:33:47;;;;;;;3.88;1.90;;;;;;;24.79;32.44;97118.19;10332801;28;20195;-59
2022/05/22 12:38:55;;;;;;;3.28;2.00;;;;;;;24.90;33.56;97103.25;10330186;28;20147;-58
2022/05/22 12:43:56;;;;;;;2.20;1.90;;;;;;;24.88;32.56;97105.16;10332724;28;20061;-58
2022/05/22 12:49:19;;;;;;;2.03;1.83;;;;;;;25.06;33.29;97107.50;10332763;28;20065;-58
2022/05/22 12:54:25;;;;;;;3.08;1.85;;;;;;;25.21;33.77;97098.44;10332164;28;20061;-58
2022/05/22 12:59:30;;;;;;;2.35;1.90;;;;;;;25.30;34.09;97100.44;10331750;28;20453;-58
2022/05/22 13:04:31;;;;;;;4.95;2.28;;;;;;;25.18;32.90;97093.38;10333546;28;20073;-58
2022/05/22 13:09:30;;;;;;;3.90;2.03;;;;;;;24.79;34.26;97097.81;10330861;28;20057;-58
2022/05/22 13:14:43;;;;;;;2.92;2.17;;;;;;;24.45;34.54;97088.63;10332049;28;20026;-58
2022/05/22 13:19:54;;;;;;;4.30;2.03;;;;;;;24.38;34.52;97088.22;10331463;28;20076;-58
2022/05/22 13:24:54;;;;;;;2.38;1.95;;;;;;;24.46;34.18;97067.31;10331755;28;20509;-58
2022/05/22 13:30:17;;;;;;;2.90;2.08;;;;;;;24.74;33.96;97075.22;10333347;28;20469;-59
2022/05/22 13:35:23;;;;;;;3.10;2.20;;;;;;;24.72;34.64;97093.88;10337349;28;20076;-58
2022/05/22 13:40:31;;;;;;;3.60;2.15;;;;;;;24.69;34.89;97083.47;10342622;28;20072;-58
2022/05/22 13:46:03;;;;;;;5.93;2.23;;;;;;;24.75;35.63;97083.03;10343506;28;20076;-58
2022/05/22 13:56:57;;;;;;;;;;;;;;;24.77;35.84;97080.28;10343927;28;20437;-58
2022/05/22 14:02:03;;;;;;;3.33;2.00;;;;;;;24.70;36.03;97086.00;10342110;28;19970;-58
2022/05/22 14:07:06;;;;;;;4.65;2.55;;;;;;;24.45;37.39;97097.47;10339820;28;20515;-58
2022/05/22 14:12:07;;;;;;;6.57;2.42;;;;;;;24.34;37.80;97092.03;10341633;28;20072;-58
2022/05/22 14:17:09;;;;;;;3.63;2.78;;;;;;;24.48;38.00;97091.09;10341853;28;20485;-58
2022/05/22 14:22:11;;;;;;;3.35;2.53;;;;;;;24.92;37.90;97078.41;10341167;28;20073;-59
2022/05/22 14:27:26;;;;;;;5.10;2.60;;;;;;;25.37;37.68;97073.47;10341172;28;20065;-59
2022/05/22 14:32:25;;;;;;;4.53;2.63;;;;;;;25.18;37.00;97073.94;10338097;28;20080;-59
2022/05/22 14:37:24;;;;;;;4.15;2.40;;;;;;;25.19;36.34;97060.53;10349345;28;20045;-59
2022/05/22 14:42:29;;;;;;;3.60;2.53;;;;;;;25.02;37.22;97052.94;10336334;28;20029;-59
2022/05/22 14:47:30;;;;;;;4.32;2.67;;;;;;;25.28;36.97;97062.53;10335390;28;20076;-58
2022/05/22 14:52:33;;;;;;;3.13;2.58;;;;;;;25.04;36.01;97061.63;10331379;28;20513;-59
2022/05/22 14:57:41;;;;;;;5.60;2.67;;;;;;;24.93;36.15;97048.25;10335155;28;20061;-58
2022/05/22 15:02:59;;;;;;;5.07;2.63;;;;;;;24.78;34.78;97044.81;10331429;28;20064;-58
2022/05/22 15:08:01;;;;;;;4.60;2.50;;;;;;;24.53;35.80;97057.16;10334399;28;20740;-59
2022/05/22 15:13:01;;;;;;;2.35;2.15;;;;;;;24.58;34.42;97059.50;10334581;28;20069;-57
2022/05/22 15:18:06;;;;;;;5.47;2.15;;;;;;;24.45;33.84;97049.72;10336417;28;20478;-58
2022/05/22 15:28:40;;;;;;;2.22;1.98;;;;;;;24.12;32.13;97051.97;10334660;28;20061;-59
2022/05/22 15:33:49;;;;;;;2.28;1.98;;;;;;;24.17;32.50;97052.50;10333830;28;20072;-59
2022/05/22 15:39:00;;;;;;;5.07;2.20;;;;;;;24.10;32.20;97061.81;10332352;28;20111;-59
2022/05/22 15:44:27;;;;;;;4.05;1.95;;;;;;;24.22;33.05;97042.50;10327810;28;20060;-59
2022/05/22 15:54:46;;;;;;;3.72;2.30;;;;;;;24.34;33.23;97062.03;10333870;28;20057;-58
2022/05/22 15:59:47;;;;;;;4.63;1.90;;;;;;;24.37;34.09;97059.16;10312175;28;20069;-58
2022/05/22 16:04:46;;;;;;;2.10;2.00;;;;;;;24.46;33.67;97054.06;10312318;28;20069;-58
2022/05/22 16:09:45;;;;;;;4.50;2.30;;;;;;;24.28;34.32;97068.56;10332505;28;20134;-58
2022/05/22 16:14:44;;;;;;;2.28;1.88;;;;;;;23.96;33.32;97076.84;10331976;28;20505;-58
2022/05/22 16:19:54;;;;;;;3.42;2.38;;;;;;;23.83;34.60;97068.84;10332169;28;20463;-58
2022/05/22 16:24:52;;;;;;;6.25;2.38;;;;;;;23.88;34.51;97068.53;10331636;28;20056;-57
2022/05/22 16:29:52;;;;;;;3.72;2.60;;;;;;;23.81;35.09;97077.84;10332477;28;20033;-58
2022/05/22 16:34:51;;;;;;;4.30;2.95;;;;;;;23.79;35.24;97072.63;10329319;28;20070;-57
2022/05/22 16:39:50;;;;;;;6.30;3.15;;;;;;;23.71;35.37;97079.41;10332999;28;20033;-57
2022/05/22 16:44:49;;;;;;;6.63;4.07;;;;;;;23.69;35.82;97089.25;10333570;28;20108;-57
2022/05/22 16:55:05;;;;;;;4.47;2.45;;;;;;;23.26;36.26;97094.63;10332461;28;20057;-61
2022/05/22 17:00:05;;;;;;;4.60;2.42;;;;;;;22.97;37.34;97094.59;10325305;28;20068;-59
2022/05/22 17:05:04;;;;;;;6.60;3.30;;;;;;;22.76;38.02;97102.94;10331852;28;20515;-59
2022/05/22 17:10:04;;;;;;;5.95;3.35;;;;;;;22.38;39.19;97102.53;10330412;28;20061;-61
2022/05/22 17:15:04;;;;;;;4.63;2.60;;;;;;;22.07;40.17;97100.84;10332797;28;20064;-59
2022/05/22 17:20:04;;;;;;;5.63;2.88;;;;;;;21.85;40.90;97112.63;10331552;28;20103;-59
2022/05/22 17:25:12;;;;;;;5.05;3.20;;;;;;;21.60;41.62;97097.28;10326891;28;20068;-58
2022/05/22 17:30:14;;;;;;;7.63;4.00;;;;;;;21.30;42.24;97084.00;10250248;28;1113331;-59
2022/05/22 17:35:13;;;;;;;5.30;3.35;;;;;;;21.30;42.27;97105.97;10289720;28;20119;-59
2022/05/22 17:40:24;;;;;;;5.68;3.40;;;;;;;21.29;42.41;97090.22;10290324;28;20072;-58
2022/05/22 17:45:23;;;;;;;4.97;3.40;;;;;;;21.19;43.01;97100.38;10251478;28;20062;-58
2022/05/22 17:50:23;;;;;;;5.00;3.63;;;;;;;21.03;43.61;97105.66;10289827;28;20038;-57
2022/05/22 17:55:22;;;;;;;5.85;3.53;;;;;;;20.82;44.07;97097.09;10289259;28;20069;-58
2022/05/22 18:00:21;;;;;;;6.05;3.75;;;;;;;20.59;44.71;97106.19;10267032;28;20089;-58
2022/05/22 18:05:21;;;;;;;3.88;3.20;;;;;;;20.41;45.14;97112.41;10260236;28;20069;-58
2022/05/22 18:21:00;;;;;;;9.13;4.75;;;;;;;19.79;47.39;97107.53;10288850;28;20069;-58
2022/05/22 18:25:59;;;;;;;19.95;5.50;;;;;;;19.54;48.35;97112.22;10294957;28;20080;-58
2022/05/22 18:31:01;;;;;;;9.30;4.75;;;;;;;19.33;48.68;97122.81;10296093;28;20721;-58
2022/05/22 18:36:00;;;;;;;6.63;4.72;;;;;;;19.12;49.81;97131.69;10280952;28;20097;-58
2022/05/22 18:40:59;;;;;;;11.98;4.88;;;;;;;18.85;50.86;97124.09;10287744;28;20430;-58
2022/05/22 18:45:58;;;;;;;9.52;4.75;;;;;;;18.69;51.18;97159.88;10295620;28;20473;-58
2022/05/22 18:51:00;;;;;;;7.43;4.38;;;;;;;18.46;51.86;97166.94;10294106;28;20037;-58
2022/05/22 18:56:04;;;;;;;10.38;5.18;;;;;;;18.23;53.22;97161.78;10295282;28;20085;-58
2022/05/22 19:01:03;;;;;;;8.57;4.90;;;;;;;18.05;53.45;97163.38;10265451;28;20066;-58
2022/05/22 19:06:02;;;;;;;7.95;5.03;;;;;;;17.83;54.45;97160.78;10275298;28;20084;-58
2022/05/22 19:11:02;;;;;;;6.07;4.55;;;;;;;17.70;55.37;97176.09;10294930;28;20112;-58
2022/05/22 19:16:04;;;;;;;7.13;5.07;;;;;;;17.52;55.84;97188.19;10293211;28;20081;-58
2022/05/22 19:21:03;;;;;;;7.13;4.60;;;;;;;17.31;56.32;97174.94;10290201;28;20095;-59
2022/05/22 19:26:04;;;;;;;;;;;;;;;17.20;56.90;97189.38;10277581;28;20068;-58
2022/05/22 19:31:05;;;;;;;6.40;4.22;;;;;;;16.95;57.18;97168.41;10293063;28;19968;-59
2022/05/22 19:36:04;;;;;;;7.32;4.20;;;;;;;16.99;57.58;97194.47;10291513;28;20065;-59
2022/05/22 19:46:22;;;;;;;8.48;4.55;;;;;;;16.72;59.79;97180.53;10304773;28;20061;-59
2022/05/22 19:51:21;;;;;;;;;;;;;;;16.68;59.81;97207.75;10293154;28;20516;-59
2022/05/22 20:01:38;;;;;;;7.20;4.05;;;;;;;16.42;60.94;97209.50;10280155;28;20069;-59
2022/05/22 20:06:37;;;;;;;;;;;;;;;16.25;61.76;97215.25;10282281;28;20042;-59
2022/05/22 20:11:37;;;;;;;10.07;4.72;;;;;;;16.00;62.13;97177.72;10289390;28;19909;-58
2022/05/22 20:16:38;;;;;;;6.35;4.63;;;;;;;15.98;61.95;97198.69;10281209;28;20076;-58
2022/05/22 20:21:38;;;;;;;8.07;4.50;;;;;;;15.92;62.39;97213.72;10291940;28;20482;-58
2022/05/22 20:26:37;;;;;;;10.45;6.22;;;;;;;15.72;63.89;97214.31;10288774;28;20061;-58
2022/05/22 20:31:35;;;;;;;;;;;;;;;15.54;65.60;97208.72;10291397;28;20049;-57
2022/05/22 20:36:34;;;;;;;10.35;4.97;;;;;;;15.45;65.67;97207.22;10276617;28;19917;-58
2022/05/22 20:41:36;;;;;;;9.80;5.53;;;;;;;15.41;65.34;97204.75;10287590;28;20045;-57
2022/05/22 20:46:35;;;;;;;14.98;6.07;;;;;;;15.36;66.54;97209.25;10289909;28;20077;-58
2022/05/22 20:51:34;;;;;;;;;;;;;;;15.13;68.86;97221.25;10291436;28;20068;-58
2022/05/22 20:56:52;;;;;;;8.13;5.23;;;;;;;14.83;69.35;97184.59;10289520;28;19969;-58
2022/05/22 21:01:52;;;;;;;9.15;5.07;;;;;;;14.94;69.10;97209.56;10277627;28;20085;-58
2022/05/22 21:06:52;;;;;;;7.25;5.35;;;;;;;14.90;69.35;97200.97;10281909;28;20068;-58
2022/05/22 21:11:53;;;;;;;8.70;5.30;;;;;;;14.82;69.42;97188.09;10290563;28;20053;-58
2022/05/22 21:16:54;;;;;;;10.55;4.90;;;;;;;14.77;69.41;97192.59;10290078;28;20058;-58
2022/05/22 21:21:53;;;;;;;6.18;4.75;;;;;;;14.73;69.47;97190.97;10277895;28;20112;-58
2022/05/22 21:32:11;;;;;;;7.57;4.30;;;;;;;14.58;70.15;97210.47;10293414;28;20077;-58
2022/05/22 21:37:10;;;;;;;10.45;5.05;;;;;;;14.41;71.63;97216.13;10290790;28;20135;-58
2022/05/22 21:42:09;;;;;;;10.52;6.50;;;;;;;14.27;72.87;97222.56;10277717;28;20061;-58
2022/05/22 21:47:09;;;;;;;8.73;5.40;;;;;;;14.22;72.98;97224.41;10293374;28;20555;-59
2022/05/22 21:52:09;;;;;;;8.82;5.63;;;;;;;14.01;73.95;97224.06;10292761;28;20057;-59
2022/05/22 21:57:13;;;;;;;9.27;5.72;;;;;;;13.83;74.19;97227.94;10298283;28;20068;-58
2022/05/22 22:02:12;;;;;;;8.88;5.78;;;;;;;13.62;74.13;97204.94;10300470;28;20065;-58
2022/05/22 22:07:11;;;;;;;7.45;5.28;;;;;;;13.70;74.44;97240.41;10300174;28;20065;-58
2022/05/22 22:12:11;;;;;;;8.52;5.82;;;;;;;13.65;74.19;97236.16;10301098;28;20026;-58
2022/05/22 22:17:11;;;;;;;8.38;5.15;;;;;;;13.53;74.73;97247.66;10298402;28;20497;-59
2022/05/22 22:22:13;;;;;;;9.27;5.70;;;;;;;13.49;75.07;97246.00;10290460;28;20064;-58
2022/05/22 22:27:12;;;;;;;7.93;5.40;;;;;;;13.28;76.03;97226.44;10299608;28;20080;-58
2022/05/22 22:32:12;;;;;;;11.00;6.55;;;;;;;13.14;77.04;97240.63;10296559;28;20046;-59
2022/05/22 22:37:11;;;;;;;14.00;7.57;;;;;;;12.91;78.24;97217.63;10284639;28;20509;-58
2022/05/22 22:42:12;;;;;;;11.20;7.45;;;;;;;12.76;79.37;97248.28;10285810;28;20501;-58
2022/05/22 22:47:11;;;;;;;11.02;7.38;;;;;;;12.59;79.43;97246.84;10295823;28;20069;-58
2022/05/22 22:52:10;;;;;;;12.10;7.30;;;;;;;12.50;79.34;97237.44;10295347;28;20062;-58
2022/05/22 23:02:30;;;;;;;13.63;7.18;;;;;;;12.48;78.84;97238.34;10293957;28;20053;-58
2022/05/22 23:07:29;;;;;;;9.40;6.38;;;;;;;12.47;78.63;97229.69;10277385;28;20030;-58
2022/05/22 23:12:28;;;;;;;10.48;6.88;;;;;;;12.46;78.94;97234.91;10295501;28;20105;-58
2022/05/22 23:17:27;;;;;;;;;;;;;;;12.44;79.32;97236.72;10295576;28;20065;-58
2022/05/22 23:22:26;;;;;;;10.05;6.97;;;;;;;12.42;78.95;97228.91;10294392;28;19959;-59
2022/05/22 23:27:25;;;;;;;11.77;7.57;;;;;;;12.41;79.00;97226.34;10294792;28;20018;-58
2022/05/22 23:32:24;;;;;;;;;;;;;;;12.39;79.65;97222.91;10283080;28;20084;-58
2022/05/22 23:37:23;;;;;;;11.23;6.90;;;;;;;12.36;79.49;97212.56;10288561;28;19975;-58
2022/05/22 23:42:21;;;;;;;9.70;6.57;;;;;;;12.36;79.56;97222.97;10294726;28;20073;-58
2022/05/22 23:47:20;;;;;;;10.48;6.90;;;;;;;12.33;79.97;97223.03;10293725;28;20112;-58
2022/05/22 23:52:23;;;;;;;10.90;6.82;;;;;;;12.23;80.45;97204.91;10289449;28;20120;-58
2022/05/22 23:57:22;;;;;;;9.32;6.70;;;;;;;12.18;81.69;97214.53;10283198;28;20075;-59
